sensor_id;sensor_type;location;lat;lon;timestamp;temperature;humidity
10213;DHT22;5150;51.400;6.692;2022-08-19T00:00:36;25.70;1.00
10213;DHT22;5150;51.400;6.692;2022-08-19T00:04:01;25.70;1.00
10213;DHT22;5150;51.400;6.692;2022-08-19T00:07:24;25.70;1.00
10213;DHT22;5150;51.400;6.692;2022-08-19T00:10:47;25.60;1.00
10213;DHT22;5150;51.400;6.692;2022-08-19T00:14:11;25.60;1.00
10213;DHT22;5150;51.400;6.692;2022-08-19T00:17:36;25.60;1.00
10213;DHT22;5150;51.400;6.692;2022-08-19T00:21:02;25.60;1.00
10213;DHT22;5150;51.400;6.692;2022-08-19T00:24:30;25.60;1.00
10213;DHT22;5150;51.400;6.692;2022-08-19T00:27:53;25.50;1.00
10213;DHT22;5150;51.400;6.692;2022-08-19T00:31:17;25.60;1.00
10213;DHT22;5150;51.400;6.692;2022-08-19T00:34:42;25.60;1.00
10213;DHT22;5150;51.400;6.692;2022-08-19T00:38:05;25.50;1.00
10213;DHT22;5150;51.400;6.692;2022-08-19T00:41:28;25.50;1.00
10213;DHT22;5150;51.400;6.692;2022-08-19T00:44:51;25.50;1.00
10213;DHT22;5150;51.400;6.692;2022-08-19T00:48:14;25.50;1.00
10213;DHT22;5150;51.400;6.692;2022-08-19T00:51:39;25.40;1.00
10213;DHT22;5150;51.400;6.692;2022-08-19T00:55:05;25.40;1.00
10213;DHT22;5150;51.400;6.692;2022-08-19T00:58:33;25.40;1.00
10213;DHT22;5150;51.400;6.692;2022-08-19T01:01:57;25.40;1.00
10213;DHT22;5150;51.400;6.692;2022-08-19T01:05:23;25.40;1.00
10213;DHT22;5150;51.400;6.692;2022-08-19T01:08:50;25.40;1.00
10213;DHT22;5150;51.400;6.692;2022-08-19T01:12:13;25.60;1.00
10213;DHT22;5150;51.400;6.692;2022-08-19T01:15:42;25.30;1.00
10213;DHT22;5150;51.400;6.692;2022-08-19T01:19:10;25.30;1.00
10213;DHT22;5150;51.400;6.692;2022-08-19T01:22:40;25.40;1.00
10213;DHT22;5150;51.400;6.692;2022-08-19T01:26:05;25.30;1.00
10213;DHT22;5150;51.400;6.692;2022-08-19T01:29:28;25.30;1.00
10213;DHT22;5150;51.400;6.692;2022-08-19T01:32:52;25.30;1.00
10213;DHT22;5150;51.400;6.692;2022-08-19T01:36:22;25.30;1.00
10213;DHT22;5150;51.400;6.692;2022-08-19T01:39:48;25.30;1.00
10213;DHT22;5150;51.400;6.692;2022-08-19T01:43:12;25.20;1.00
10213;DHT22;5150;51.400;6.692;2022-08-19T01:46:35;25.20;1.00
10213;DHT22;5150;51.400;6.692;2022-08-19T01:49:58;24.90;1.00
10213;DHT22;5150;51.400;6.692;2022-08-19T01:53:21;25.20;1.00
10213;DHT22;5150;51.400;6.692;2022-08-19T01:56:54;25.20;1.00
10213;DHT22;5150;51.400;6.692;2022-08-19T02:00:20;25.20;1.00
10213;DHT22;5150;51.400;6.692;2022-08-19T02:03:43;25.20;1.00
10213;DHT22;5150;51.400;6.692;2022-08-19T02:07:07;25.10;1.00
10213;DHT22;5150;51.400;6.692;2022-08-19T02:10:31;25.20;1.00
10213;DHT22;5150;51.400;6.692;2022-08-19T02:13:55;25.10;1.00
10213;DHT22;5150;51.400;6.692;2022-08-19T02:17:18;25.10;1.00
10213;DHT22;5150;51.400;6.692;2022-08-19T02:20:43;25.10;1.00
10213;DHT22;5150;51.400;6.692;2022-08-19T02:24:07;25.10;1.00
10213;DHT22;5150;51.400;6.692;2022-08-19T02:27:30;25.10;1.00
10213;DHT22;5150;51.400;6.692;2022-08-19T02:30:56;25.00;1.00
10213;DHT22;5150;51.400;6.692;2022-08-19T02:34:23;25.00;1.00
10213;DHT22;5150;51.400;6.692;2022-08-19T02:37:46;25.00;1.00
10213;DHT22;5150;51.400;6.692;2022-08-19T02:41:29;25.00;1.00
10213;DHT22;5150;51.400;6.692;2022-08-19T02:44:55;25.00;1.00
10213;DHT22;5150;51.400;6.692;2022-08-19T02:48:20;25.00;1.00
10213;DHT22;5150;51.400;6.692;2022-08-19T02:51:45;25.00;1.00
10213;DHT22;5150;51.400;6.692;2022-08-19T02:55:09;24.90;1.00
10213;DHT22;5150;51.400;6.692;2022-08-19T02:58:32;25.50;1.00
10213;DHT22;5150;51.400;6.692;2022-08-19T03:01:55;24.90;1.00
10213;DHT22;5150;51.400;6.692;2022-08-19T03:05:19;24.90;1.00
10213;DHT22;5150;51.400;6.692;2022-08-19T03:09:03;24.90;1.00
10213;DHT22;5150;51.400;6.692;2022-08-19T03:12:26;24.90;1.00
10213;DHT22;5150;51.400;6.692;2022-08-19T03:15:49;24.90;1.00
10213;DHT22;5150;51.400;6.692;2022-08-19T03:19:13;24.90;1.00
10213;DHT22;5150;51.400;6.692;2022-08-19T03:22:37;24.80;1.00
10213;DHT22;5150;51.400;6.692;2022-08-19T03:26:04;24.80;1.00
10213;DHT22;5150;51.400;6.692;2022-08-19T03:29:38;24.80;1.00
10213;DHT22;5150;51.400;6.692;2022-08-19T03:33:04;24.80;1.00
10213;DHT22;5150;51.400;6.692;2022-08-19T03:36:29;24.80;1.00
10213;DHT22;5150;51.400;6.692;2022-08-19T03:39:53;24.70;1.00
10213;DHT22;5150;51.400;6.692;2022-08-19T03:43:16;24.70;1.00
10213;DHT22;5150;51.400;6.692;2022-08-19T03:46:40;24.70;1.00
10213;DHT22;5150;51.400;6.692;2022-08-19T03:50:05;24.70;1.00
10213;DHT22;5150;51.400;6.692;2022-08-19T03:53:32;24.70;1.00
10213;DHT22;5150;51.400;6.692;2022-08-19T03:56:57;24.70;1.00
10213;DHT22;5150;51.400;6.692;2022-08-19T04:00:20;24.70;1.00
10213;DHT22;5150;51.400;6.692;2022-08-19T04:03:44;24.70;1.00
10213;DHT22;5150;51.400;6.692;2022-08-19T04:07:08;24.60;1.00
10213;DHT22;5150;51.400;6.692;2022-08-19T04:10:34;24.70;1.00
10213;DHT22;5150;51.400;6.692;2022-08-19T04:13:59;24.60;1.00
10213;DHT22;5150;51.400;6.692;2022-08-19T04:17:25;24.60;1.00
10213;DHT22;5150;51.400;6.692;2022-08-19T04:20:48;24.70;1.00
10213;DHT22;5150;51.400;6.692;2022-08-19T04:24:12;24.60;1.00
10213;DHT22;5150;51.400;6.692;2022-08-19T04:27:35;24.60;1.00
10213;DHT22;5150;51.400;6.692;2022-08-19T04:30:59;24.60;1.00
10213;DHT22;5150;51.400;6.692;2022-08-19T04:34:24;24.60;1.00
10213;DHT22;5150;51.400;6.692;2022-08-19T04:37:47;24.60;1.00
10213;DHT22;5150;51.400;6.692;2022-08-19T04:41:10;24.60;1.00
10213;DHT22;5150;51.400;6.692;2022-08-19T04:44:51;24.60;1.00
10213;DHT22;5150;51.400;6.692;2022-08-19T04:48:16;24.60;1.00
10213;DHT22;5150;51.400;6.692;2022-08-19T04:51:49;24.60;1.00
10213;DHT22;5150;51.400;6.692;2022-08-19T04:55:13;24.60;1.00
10213;DHT22;5150;51.400;6.692;2022-08-19T04:58:38;24.60;1.00
10213;DHT22;5150;51.400;6.692;2022-08-19T05:02:03;24.60;1.00
10213;DHT22;5150;51.400;6.692;2022-08-19T05:05:28;24.60;1.00
10213;DHT22;5150;51.400;6.692;2022-08-19T05:09:05;24.60;1.00
10213;DHT22;5150;51.400;6.692;2022-08-19T05:12:28;24.60;1.00
10213;DHT22;5150;51.400;6.692;2022-08-19T05:15:54;24.60;1.00
10213;DHT22;5150;51.400;6.692;2022-08-19T05:19:17;24.50;1.00
10213;DHT22;5150;51.400;6.692;2022-08-19T05:22:59;24.50;1.00
10213;DHT22;5150;51.400;6.692;2022-08-19T05:26:34;24.50;1.00
10213;DHT22;5150;51.400;6.692;2022-08-19T05:29:57;24.50;1.00
10213;DHT22;5150;51.400;6.692;2022-08-19T05:33:20;24.50;1.00
10213;DHT22;5150;51.400;6.692;2022-08-19T05:36:44;24.50;1.00
10213;DHT22;5150;51.400;6.692;2022-08-19T05:40:10;24.50;1.00
10213;DHT22;5150;51.400;6.692;2022-08-19T05:43:33;24.50;1.00
10213;DHT22;5150;51.400;6.692;2022-08-19T05:46:56;24.50;1.00
10213;DHT22;5150;51.400;6.692;2022-08-19T05:50:19;24.50;1.00
10213;DHT22;5150;51.400;6.692;2022-08-19T05:53:43;24.50;1.00
10213;DHT22;5150;51.400;6.692;2022-08-19T05:57:08;24.50;1.00
10213;DHT22;5150;51.400;6.692;2022-08-19T06:00:34;24.50;1.00
10213;DHT22;5150;51.400;6.692;2022-08-19T06:03:57;24.50;1.00
10213;DHT22;5150;51.400;6.692;2022-08-19T06:07:21;24.50;1.00
10213;DHT22;5150;51.400;6.692;2022-08-19T06:10:44;24.60;1.00
10213;DHT22;5150;51.400;6.692;2022-08-19T06:14:11;24.60;1.00
10213;DHT22;5150;51.400;6.692;2022-08-19T06:17:38;24.60;1.00
10213;DHT22;5150;51.400;6.692;2022-08-19T06:21:01;24.60;1.00
10213;DHT22;5150;51.400;6.692;2022-08-19T06:24:27;24.50;1.00
10213;DHT22;5150;51.400;6.692;2022-08-19T06:27:50;24.50;1.00
10213;DHT22;5150;51.400;6.692;2022-08-19T06:31:36;24.30;1.00
10213;DHT22;5150;51.400;6.692;2022-08-19T06:35:00;24.00;1.00
10213;DHT22;5150;51.400;6.692;2022-08-19T06:38:23;23.90;1.00
10213;DHT22;5150;51.400;6.692;2022-08-19T06:41:48;23.80;1.00
10213;DHT22;5150;51.400;6.692;2022-08-19T06:45:15;23.70;1.00
10213;DHT22;5150;51.400;6.692;2022-08-19T06:48:47;23.60;1.00
10213;DHT22;5150;51.400;6.692;2022-08-19T06:52:11;23.70;1.00
10213;DHT22;5150;51.400;6.692;2022-08-19T06:55:35;23.80;1.00
10213;DHT22;5150;51.400;6.692;2022-08-19T06:58:59;23.90;1.00
10213;DHT22;5150;51.400;6.692;2022-08-19T07:02:22;23.90;1.00
10213;DHT22;5150;51.400;6.692;2022-08-19T07:05:49;24.00;1.00
10213;DHT22;5150;51.400;6.692;2022-08-19T07:09:14;24.00;1.00
10213;DHT22;5150;51.400;6.692;2022-08-19T07:12:39;24.00;1.00
10213;DHT22;5150;51.400;6.692;2022-08-19T07:16:04;23.90;1.00
10213;DHT22;5150;51.400;6.692;2022-08-19T07:19:28;23.90;1.00
10213;DHT22;5150;51.400;6.692;2022-08-19T07:22:55;23.90;1.00
10213;DHT22;5150;51.400;6.692;2022-08-19T07:26:24;23.90;1.00
10213;DHT22;5150;51.400;6.692;2022-08-19T07:29:48;23.90;1.00
10213;DHT22;5150;51.400;6.692;2022-08-19T07:33:17;23.90;1.00
10213;DHT22;5150;51.400;6.692;2022-08-19T07:36:41;24.00;1.00
10213;DHT22;5150;51.400;6.692;2022-08-19T07:40:07;23.90;1.00
10213;DHT22;5150;51.400;6.692;2022-08-19T07:43:30;24.00;1.00
10213;DHT22;5150;51.400;6.692;2022-08-19T07:46:56;24.00;1.00
10213;DHT22;5150;51.400;6.692;2022-08-19T07:50:22;24.00;1.00
10213;DHT22;5150;51.400;6.692;2022-08-19T07:53:45;24.10;1.00
10213;DHT22;5150;51.400;6.692;2022-08-19T07:57:10;24.10;1.00
10213;DHT22;5150;51.400;6.692;2022-08-19T08:00:34;24.20;1.00
10213;DHT22;5150;51.400;6.692;2022-08-19T08:03:58;24.20;1.00
10213;DHT22;5150;51.400;6.692;2022-08-19T08:07:38;24.20;1.00
10213;DHT22;5150;51.400;6.692;2022-08-19T08:11:20;24.20;1.00
10213;DHT22;5150;51.400;6.692;2022-08-19T08:14:48;24.20;1.00
10213;DHT22;5150;51.400;6.692;2022-08-19T08:18:16;24.20;1.00
10213;DHT22;5150;51.400;6.692;2022-08-19T08:21:41;24.30;1.00
10213;DHT22;5150;51.400;6.692;2022-08-19T08:25:06;24.30;1.00
10213;DHT22;5150;51.400;6.692;2022-08-19T08:28:29;24.30;1.00
10213;DHT22;5150;51.400;6.692;2022-08-19T08:31:54;24.30;1.00
10213;DHT22;5150;51.400;6.692;2022-08-19T08:35:22;24.30;1.00
10213;DHT22;5150;51.400;6.692;2022-08-19T08:38:46;24.40;1.00
10213;DHT22;5150;51.400;6.692;2022-08-19T08:42:13;24.50;1.00
10213;DHT22;5150;51.400;6.692;2022-08-19T08:45:45;24.50;1.00
10213;DHT22;5150;51.400;6.692;2022-08-19T08:49:24;24.60;1.00
10213;DHT22;5150;51.400;6.692;2022-08-19T08:52:52;24.60;1.00
10213;DHT22;5150;51.400;6.692;2022-08-19T08:56:17;24.60;1.00
10213;DHT22;5150;51.400;6.692;2022-08-19T08:59:42;24.60;1.00
10213;DHT22;5150;51.400;6.692;2022-08-19T09:03:16;24.70;1.00
10213;DHT22;5150;51.400;6.692;2022-08-19T09:06:57;24.80;1.00
10213;DHT22;5150;51.400;6.692;2022-08-19T09:10:49;24.80;1.00
10213;DHT22;5150;51.400;6.692;2022-08-19T09:14:27;24.80;1.00
10213;DHT22;5150;51.400;6.692;2022-08-19T09:18:11;24.80;1.00
10213;DHT22;5150;51.400;6.692;2022-08-19T09:21:41;24.80;1.00
10213;DHT22;5150;51.400;6.692;2022-08-19T09:25:05;24.80;1.00
10213;DHT22;5150;51.400;6.692;2022-08-19T09:28:28;24.90;1.00
10213;DHT22;5150;51.400;6.692;2022-08-19T09:31:53;24.90;1.00
10213;DHT22;5150;51.400;6.692;2022-08-19T09:35:16;25.00;1.00
10213;DHT22;5150;51.400;6.692;2022-08-19T09:38:41;25.00;1.00
10213;DHT22;5150;51.400;6.692;2022-08-19T09:42:06;25.10;1.00
10213;DHT22;5150;51.400;6.692;2022-08-19T09:45:52;25.10;1.00
10213;DHT22;5150;51.400;6.692;2022-08-19T09:49:15;25.20;1.00
10213;DHT22;5150;51.400;6.692;2022-08-19T09:52:39;25.20;1.00
10213;DHT22;5150;51.400;6.692;2022-08-19T09:56:18;25.30;1.00
10213;DHT22;5150;51.400;6.692;2022-08-19T09:59:41;25.30;1.00
10213;DHT22;5150;51.400;6.692;2022-08-19T10:03:06;25.40;1.00
10213;DHT22;5150;51.400;6.692;2022-08-19T10:06:30;25.40;1.00
10213;DHT22;5150;51.400;6.692;2022-08-19T10:10:08;25.50;1.00
10213;DHT22;5150;51.400;6.692;2022-08-19T10:13:35;25.60;1.00
10213;DHT22;5150;51.400;6.692;2022-08-19T10:16:58;25.60;1.00
10213;DHT22;5150;51.400;6.692;2022-08-19T10:20:25;25.60;1.00
10213;DHT22;5150;51.400;6.692;2022-08-19T10:23:50;25.70;1.00
10213;DHT22;5150;51.400;6.692;2022-08-19T10:27:13;25.70;1.00
10213;DHT22;5150;51.400;6.692;2022-08-19T10:30:39;25.80;1.00
10213;DHT22;5150;51.400;6.692;2022-08-19T10:34:02;25.80;1.00
10213;DHT22;5150;51.400;6.692;2022-08-19T10:37:25;25.80;1.00
10213;DHT22;5150;51.400;6.692;2022-08-19T10:40:53;25.90;1.00
10213;DHT22;5150;51.400;6.692;2022-08-19T10:44:16;26.00;1.00
10213;DHT22;5150;51.400;6.692;2022-08-19T10:47:41;26.10;1.00
10213;DHT22;5150;51.400;6.692;2022-08-19T10:51:04;26.10;1.00
10213;DHT22;5150;51.400;6.692;2022-08-19T10:54:45;26.10;1.00
10213;DHT22;5150;51.400;6.692;2022-08-19T10:58:30;26.20;1.00
10213;DHT22;5150;51.400;6.692;2022-08-19T11:01:58;26.30;1.00
10213;DHT22;5150;51.400;6.692;2022-08-19T11:05:23;26.30;1.00
10213;DHT22;5150;51.400;6.692;2022-08-19T11:08:46;26.30;1.00
10213;DHT22;5150;51.400;6.692;2022-08-19T11:12:09;26.30;1.00
10213;DHT22;5150;51.400;6.692;2022-08-19T11:15:34;26.40;1.00
10213;DHT22;5150;51.400;6.692;2022-08-19T11:18:58;26.30;1.00
10213;DHT22;5150;51.400;6.692;2022-08-19T11:22:23;26.30;1.00
10213;DHT22;5150;51.400;6.692;2022-08-19T11:25:59;26.30;1.00
10213;DHT22;5150;51.400;6.692;2022-08-19T11:29:23;26.40;1.00
10213;DHT22;5150;51.400;6.692;2022-08-19T11:32:49;26.40;1.00
10213;DHT22;5150;51.400;6.692;2022-08-19T11:36:12;26.50;1.00
10213;DHT22;5150;51.400;6.692;2022-08-19T11:39:37;26.60;1.00
10213;DHT22;5150;51.400;6.692;2022-08-19T11:43:01;26.70;1.00
10213;DHT22;5150;51.400;6.692;2022-08-19T11:46:25;26.80;1.00
10213;DHT22;5150;51.400;6.692;2022-08-19T11:49:50;26.90;1.00
10213;DHT22;5150;51.400;6.692;2022-08-19T11:53:15;27.10;1.00
10213;DHT22;5150;51.400;6.692;2022-08-19T11:56:41;27.20;1.00
10213;DHT22;5150;51.400;6.692;2022-08-19T12:00:05;27.40;1.00
10213;DHT22;5150;51.400;6.692;2022-08-19T12:03:29;27.50;1.00
10213;DHT22;5150;51.400;6.692;2022-08-19T12:06:52;27.70;1.00
10213;DHT22;5150;51.400;6.692;2022-08-19T12:10:15;27.90;1.00
10213;DHT22;5150;51.400;6.692;2022-08-19T12:13:42;28.20;1.00
10213;DHT22;5150;51.400;6.692;2022-08-19T12:17:06;28.50;1.00
10213;DHT22;5150;51.400;6.692;2022-08-19T12:20:30;28.80;1.00
10213;DHT22;5150;51.400;6.692;2022-08-19T12:23:59;29.10;1.00
10213;DHT22;5150;51.400;6.692;2022-08-19T12:27:22;29.50;1.00
10213;DHT22;5150;51.400;6.692;2022-08-19T12:31:03;29.70;1.00
10213;DHT22;5150;51.400;6.692;2022-08-19T12:34:28;30.00;1.00
10213;DHT22;5150;51.400;6.692;2022-08-19T12:37:52;30.20;1.00
10213;DHT22;5150;51.400;6.692;2022-08-19T12:41:18;30.30;1.00
10213;DHT22;5150;51.400;6.692;2022-08-19T12:44:44;30.30;1.00
10213;DHT22;5150;51.400;6.692;2022-08-19T12:48:08;30.50;1.00
10213;DHT22;5150;51.400;6.692;2022-08-19T12:51:51;30.70;1.00
10213;DHT22;5150;51.400;6.692;2022-08-19T12:55:15;30.90;1.00
10213;DHT22;5150;51.400;6.692;2022-08-19T12:58:40;31.00;1.00
10213;DHT22;5150;51.400;6.692;2022-08-19T13:02:11;31.10;1.00
10213;DHT22;5150;51.400;6.692;2022-08-19T13:05:35;31.00;1.00
10213;DHT22;5150;51.400;6.692;2022-08-19T13:08:58;30.90;1.00
10213;DHT22;5150;51.400;6.692;2022-08-19T13:12:21;30.50;1.00
10213;DHT22;5150;51.400;6.692;2022-08-19T13:15:48;30.30;1.00
10213;DHT22;5150;51.400;6.692;2022-08-19T13:19:11;30.40;1.00
10213;DHT22;5150;51.400;6.692;2022-08-19T13:22:36;30.70;1.00
10213;DHT22;5150;51.400;6.692;2022-08-19T13:26:01;30.90;1.00
10213;DHT22;5150;51.400;6.692;2022-08-19T13:29:24;31.10;1.00
10213;DHT22;5150;51.400;6.692;2022-08-19T13:33:05;31.20;1.00
10213;DHT22;5150;51.400;6.692;2022-08-19T13:36:37;31.00;1.00
10213;DHT22;5150;51.400;6.692;2022-08-19T13:40:03;31.10;1.00
10213;DHT22;5150;51.400;6.692;2022-08-19T13:43:26;31.40;1.00
10213;DHT22;5150;51.400;6.692;2022-08-19T13:46:50;31.40;1.00
10213;DHT22;5150;51.400;6.692;2022-08-19T13:50:16;31.30;1.00
10213;DHT22;5150;51.400;6.692;2022-08-19T13:53:39;31.20;1.00
10213;DHT22;5150;51.400;6.692;2022-08-19T13:57:13;31.40;1.00
10213;DHT22;5150;51.400;6.692;2022-08-19T14:00:43;31.50;1.00
10213;DHT22;5150;51.400;6.692;2022-08-19T14:04:07;31.70;1.00
10213;DHT22;5150;51.400;6.692;2022-08-19T14:07:30;31.70;1.00
10213;DHT22;5150;51.400;6.692;2022-08-19T14:10:54;31.40;1.00
10213;DHT22;5150;51.400;6.692;2022-08-19T14:14:18;31.50;1.00
10213;DHT22;5150;51.400;6.692;2022-08-19T14:17:43;31.60;1.00
10213;DHT22;5150;51.400;6.692;2022-08-19T14:21:08;31.70;1.00
10213;DHT22;5150;51.400;6.692;2022-08-19T14:24:37;31.80;1.00
10213;DHT22;5150;51.400;6.692;2022-08-19T14:28:08;31.80;1.00
10213;DHT22;5150;51.400;6.692;2022-08-19T14:31:32;31.90;1.00
10213;DHT22;5150;51.400;6.692;2022-08-19T14:34:55;31.90;1.00
10213;DHT22;5150;51.400;6.692;2022-08-19T14:38:19;31.90;1.00
10213;DHT22;5150;51.400;6.692;2022-08-19T14:41:52;31.90;1.00
10213;DHT22;5150;51.400;6.692;2022-08-19T14:45:15;31.90;1.00
10213;DHT22;5150;51.400;6.692;2022-08-19T14:48:39;31.90;1.00
10213;DHT22;5150;51.400;6.692;2022-08-19T14:52:03;31.90;1.00
10213;DHT22;5150;51.400;6.692;2022-08-19T14:55:26;31.80;1.00
10213;DHT22;5150;51.400;6.692;2022-08-19T14:58:50;31.80;1.00
10213;DHT22;5150;51.400;6.692;2022-08-19T15:02:13;31.80;1.00
10213;DHT22;5150;51.400;6.692;2022-08-19T15:05:58;31.80;1.00
10213;DHT22;5150;51.400;6.692;2022-08-19T15:09:22;31.80;1.00
10213;DHT22;5150;51.400;6.692;2022-08-19T15:12:45;31.80;1.00
10213;DHT22;5150;51.400;6.692;2022-08-19T15:16:13;31.80;1.00
10213;DHT22;5150;51.400;6.692;2022-08-19T15:19:39;31.80;1.00
10213;DHT22;5150;51.400;6.692;2022-08-19T15:23:03;31.80;1.00
10213;DHT22;5150;51.400;6.692;2022-08-19T15:26:27;31.80;1.00
10213;DHT22;5150;51.400;6.692;2022-08-19T15:29:53;31.80;1.00
10213;DHT22;5150;51.400;6.692;2022-08-19T15:33:22;31.80;1.00
10213;DHT22;5150;51.400;6.692;2022-08-19T15:36:45;31.90;1.00
10213;DHT22;5150;51.400;6.692;2022-08-19T15:40:10;31.80;1.00
10213;DHT22;5150;51.400;6.692;2022-08-19T15:43:40;31.80;1.00
10213;DHT22;5150;51.400;6.692;2022-08-19T15:47:04;31.80;1.00
10213;DHT22;5150;51.400;6.692;2022-08-19T15:50:28;31.80;1.00
10213;DHT22;5150;51.400;6.692;2022-08-19T15:53:53;31.80;1.00
10213;DHT22;5150;51.400;6.692;2022-08-19T15:57:17;31.80;1.00
10213;DHT22;5150;51.400;6.692;2022-08-19T16:01:12;31.80;1.00
10213;DHT22;5150;51.400;6.692;2022-08-19T16:04:59;31.80;1.00
10213;DHT22;5150;51.400;6.692;2022-08-19T16:08:39;31.70;1.00
10213;DHT22;5150;51.400;6.692;2022-08-19T16:12:10;31.70;1.00
10213;DHT22;5150;51.400;6.692;2022-08-19T16:15:34;31.50;1.00
10213;DHT22;5150;51.400;6.692;2022-08-19T16:18:59;31.50;1.00
10213;DHT22;5150;51.400;6.692;2022-08-19T16:22:27;31.50;1.00
10213;DHT22;5150;51.400;6.692;2022-08-19T16:25:51;31.40;1.00
10213;DHT22;5150;51.400;6.692;2022-08-19T16:29:16;31.20;1.00
10213;DHT22;5150;51.400;6.692;2022-08-19T16:32:56;31.00;1.00
10213;DHT22;5150;51.400;6.692;2022-08-19T16:36:20;30.90;1.00
10213;DHT22;5150;51.400;6.692;2022-08-19T16:39:44;30.80;1.00
10213;DHT22;5150;51.400;6.692;2022-08-19T16:43:07;30.60;1.00
10213;DHT22;5150;51.400;6.692;2022-08-19T16:46:31;30.40;1.00
10213;DHT22;5150;51.400;6.692;2022-08-19T16:49:55;30.20;1.00
10213;DHT22;5150;51.400;6.692;2022-08-19T16:53:20;30.10;1.00
10213;DHT22;5150;51.400;6.692;2022-08-19T16:56:44;30.00;1.00
10213;DHT22;5150;51.400;6.692;2022-08-19T17:00:09;30.10;1.00
10213;DHT22;5150;51.400;6.692;2022-08-19T17:03:34;30.30;1.00
10213;DHT22;5150;51.400;6.692;2022-08-19T17:06:59;30.40;1.00
10213;DHT22;5150;51.400;6.692;2022-08-19T17:10:22;30.40;1.00
10213;DHT22;5150;51.400;6.692;2022-08-19T17:13:45;30.30;1.00
10213;DHT22;5150;51.400;6.692;2022-08-19T17:17:09;30.10;1.00
10213;DHT22;5150;51.400;6.692;2022-08-19T17:20:33;29.90;1.00
10213;DHT22;5150;51.400;6.692;2022-08-19T17:23:59;29.80;1.00
10213;DHT22;5150;51.400;6.692;2022-08-19T17:27:22;29.70;1.00
10213;DHT22;5150;51.400;6.692;2022-08-19T17:30:47;29.60;1.00
10213;DHT22;5150;51.400;6.692;2022-08-19T17:34:10;29.50;1.00
10213;DHT22;5150;51.400;6.692;2022-08-19T17:37:34;29.40;1.00
10213;DHT22;5150;51.400;6.692;2022-08-19T17:40:58;29.40;1.00
10213;DHT22;5150;51.400;6.692;2022-08-19T17:44:25;29.30;1.00
10213;DHT22;5150;51.400;6.692;2022-08-19T17:47:49;29.30;1.00
10213;DHT22;5150;51.400;6.692;2022-08-19T17:51:13;29.30;1.00
10213;DHT22;5150;51.400;6.692;2022-08-19T17:54:37;29.20;1.00
10213;DHT22;5150;51.400;6.692;2022-08-19T17:58:02;29.20;1.00
10213;DHT22;5150;51.400;6.692;2022-08-19T18:01:29;29.10;1.00
10213;DHT22;5150;51.400;6.692;2022-08-19T18:05:12;29.10;1.00
10213;DHT22;5150;51.400;6.692;2022-08-19T18:08:36;29.00;1.00
10213;DHT22;5150;51.400;6.692;2022-08-19T18:12:00;29.00;1.00
10213;DHT22;5150;51.400;6.692;2022-08-19T18:15:25;29.00;1.00
10213;DHT22;5150;51.400;6.692;2022-08-19T18:18:48;28.90;1.00
10213;DHT22;5150;51.400;6.692;2022-08-19T18:22:21;28.90;1.00
10213;DHT22;5150;51.400;6.692;2022-08-19T18:25:45;28.80;1.00
10213;DHT22;5150;51.400;6.692;2022-08-19T18:29:08;28.80;1.00
10213;DHT22;5150;51.400;6.692;2022-08-19T18:32:33;28.80;1.00
10213;DHT22;5150;51.400;6.692;2022-08-19T18:35:58;28.70;1.00
10213;DHT22;5150;51.400;6.692;2022-08-19T18:39:22;28.70;1.00
10213;DHT22;5150;51.400;6.692;2022-08-19T18:43:06;28.70;1.00
10213;DHT22;5150;51.400;6.692;2022-08-19T18:46:46;28.60;1.00
10213;DHT22;5150;51.400;6.692;2022-08-19T18:50:28;28.60;1.00
10213;DHT22;5150;51.400;6.692;2022-08-19T18:53:51;28.60;1.00
10213;DHT22;5150;51.400;6.692;2022-08-19T18:57:16;28.60;1.00
10213;DHT22;5150;51.400;6.692;2022-08-19T19:00:47;28.60;1.00
10213;DHT22;5150;51.400;6.692;2022-08-19T19:04:10;28.60;1.00
10213;DHT22;5150;51.400;6.692;2022-08-19T19:07:35;28.40;1.00
10213;DHT22;5150;51.400;6.692;2022-08-19T19:10:58;28.20;1.00
10213;DHT22;5150;51.400;6.692;2022-08-19T19:14:28;28.00;1.00
10213;DHT22;5150;51.400;6.692;2022-08-19T19:18:10;27.80;1.00
10213;DHT22;5150;51.400;6.692;2022-08-19T19:21:35;27.70;1.00
10213;DHT22;5150;51.400;6.692;2022-08-19T19:24:59;27.70;1.00
10213;DHT22;5150;51.400;6.692;2022-08-19T19:28:23;27.60;1.00
10213;DHT22;5150;51.400;6.692;2022-08-19T19:31:49;27.60;1.00
10213;DHT22;5150;51.400;6.692;2022-08-19T19:35:13;27.50;1.00
10213;DHT22;5150;51.400;6.692;2022-08-19T19:38:36;27.50;1.00
10213;DHT22;5150;51.400;6.692;2022-08-19T19:42:05;27.50;1.00
10213;DHT22;5150;51.400;6.692;2022-08-19T19:45:33;27.40;1.00
10213;DHT22;5150;51.400;6.692;2022-08-19T19:48:57;27.40;1.00
10213;DHT22;5150;51.400;6.692;2022-08-19T19:52:21;27.00;1.00
10213;DHT22;5150;51.400;6.692;2022-08-19T19:55:46;27.00;1.00
10213;DHT22;5150;51.400;6.692;2022-08-19T19:59:10;27.00;1.00
10213;DHT22;5150;51.400;6.692;2022-08-19T20:02:33;26.90;1.00
10213;DHT22;5150;51.400;6.692;2022-08-19T20:05:57;26.90;1.00
10213;DHT22;5150;51.400;6.692;2022-08-19T20:09:21;26.80;1.00
10213;DHT22;5150;51.400;6.692;2022-08-19T20:13:06;26.80;1.00
10213;DHT22;5150;51.400;6.692;2022-08-19T20:16:31;26.80;1.00
10213;DHT22;5150;51.400;6.692;2022-08-19T20:19:54;26.90;1.00
10213;DHT22;5150;51.400;6.692;2022-08-19T20:23:19;26.80;1.00
10213;DHT22;5150;51.400;6.692;2022-08-19T20:26:43;26.50;1.00
10213;DHT22;5150;51.400;6.692;2022-08-19T20:30:14;26.30;1.00
10213;DHT22;5150;51.400;6.692;2022-08-19T20:33:41;26.20;1.00
10213;DHT22;5150;51.400;6.692;2022-08-19T20:37:05;26.30;1.00
10213;DHT22;5150;51.400;6.692;2022-08-19T20:40:30;26.40;1.00
10213;DHT22;5150;51.400;6.692;2022-08-19T20:43:55;26.50;1.00
10213;DHT22;5150;51.400;6.692;2022-08-19T20:47:18;26.20;1.00
10213;DHT22;5150;51.400;6.692;2022-08-19T20:50:42;26.20;1.00
10213;DHT22;5150;51.400;6.692;2022-08-19T20:54:05;26.30;1.00
10213;DHT22;5150;51.400;6.692;2022-08-19T20:57:28;26.40;1.00
10213;DHT22;5150;51.400;6.692;2022-08-19T21:00:53;26.50;1.00
10213;DHT22;5150;51.400;6.692;2022-08-19T21:04:19;26.40;1.00
10213;DHT22;5150;51.400;6.692;2022-08-19T21:07:44;26.30;1.00
10213;DHT22;5150;51.400;6.692;2022-08-19T21:11:07;26.20;1.00
10213;DHT22;5150;51.400;6.692;2022-08-19T21:14:31;26.10;1.00
10213;DHT22;5150;51.400;6.692;2022-08-19T21:17:54;26.10;1.00
10213;DHT22;5150;51.400;6.692;2022-08-19T21:21:17;26.00;1.00
10213;DHT22;5150;51.400;6.692;2022-08-19T21:24:42;25.90;1.00
10213;DHT22;5150;51.400;6.692;2022-08-19T21:28:05;25.60;1.00
10213;DHT22;5150;51.400;6.692;2022-08-19T21:31:28;25.60;1.00
10213;DHT22;5150;51.400;6.692;2022-08-19T21:34:51;25.60;1.00
10213;DHT22;5150;51.400;6.692;2022-08-19T21:38:14;25.60;1.00
10213;DHT22;5150;51.400;6.692;2022-08-19T21:41:38;25.60;1.00
10213;DHT22;5150;51.400;6.692;2022-08-19T21:45:05;25.60;1.00
10213;DHT22;5150;51.400;6.692;2022-08-19T21:48:28;25.70;1.00
10213;DHT22;5150;51.400;6.692;2022-08-19T21:51:51;25.50;1.00
10213;DHT22;5150;51.400;6.692;2022-08-19T21:55:15;25.40;1.00
10213;DHT22;5150;51.400;6.692;2022-08-19T21:58:39;25.50;1.00
10213;DHT22;5150;51.400;6.692;2022-08-19T22:02:02;25.40;1.00
10213;DHT22;5150;51.400;6.692;2022-08-19T22:05:40;25.60;1.00
10213;DHT22;5150;51.400;6.692;2022-08-19T22:09:04;25.60;1.00
10213;DHT22;5150;51.400;6.692;2022-08-19T22:12:29;25.60;1.00
10213;DHT22;5150;51.400;6.692;2022-08-19T22:15:54;25.70;1.00
10213;DHT22;5150;51.400;6.692;2022-08-19T22:19:17;25.70;1.00
10213;DHT22;5150;51.400;6.692;2022-08-19T22:22:45;25.60;1.00
10213;DHT22;5150;51.400;6.692;2022-08-19T22:26:11;25.40;1.00